Alvwood, Minnesota
Current Conditions -  °F | °C
As of 6:34 AM on Thursday 23 Oct 2014 (Local Time) from KVWU Reporting Station
Scattered Clouds Scattered Clouds  
Wind Chill: 48°   Ceiling: Unl
Heat Index: 48°   Visibility: 7mi
Dew Point: 48°   Wind: 0mph
Humidity: 100%   Direction: NA
Pressure: 29.88"   Gusts: NA
Location:  47.7306°N, 94.3762°W
Report Text: KVWU 231134Z AUTO 00000KT 7SM SCT005 09/09 A2988 RMK AO2
Loading
Personal Weather Stations






























Interactive Weather Map
Tropical Storm Tracking
New forecast layout! Learn more

10-Day Weather Forecast

Advertisements
Track Severe Weather on mobile